Share

Belle Valley, OH (43717)

KOHBEVER2 Elev 702 ft | 39.55 °N, 81.64 °W | Change Station

Current weather conditions updated 2 seconds ago

Clear
Clear
54.5 °F
Feels Like 54.5 °F
N
1.3
Wind Variable Wind from NNE
Gusts 6.0 mph
Sunrise 6:42 AM
Sunset 8:08 PM
Moon Waning Gibbous

Today is forecast to be Much Cooler than yesterday.

Pressure 30.35 in
Visibility 10.0 miles
Clouds Clear
Dew Point 42 °F
Humidity 63%
Rainfall 0.00 in
Snow Depth Not available.
UV 2 out of 16
Pollen 11.10 out of 12
Air Quality Not available.
Flu Activity Local Activity
METAR KZZV 191253Z AUTO VRB06KT 10SM CLR 09/04 A3034 RMK AO2 SLP276 T00940044 TSNO

More Conditions Fewer Conditions

Pressure 30.35 in
Visibility 10.0 miles
Clouds Clear
Dew Point 42 °F
Humidity 63%
Rainfall 0.00 in
Snow Depth Not available.
UV 2 out of 16
Pollen 11.10 out of 12
Air Quality Not available.
Flu Activity Local Activity
METAR KZZV 191253Z AUTO VRB06KT 10SM CLR 09/04 A3034 RMK AO2 SLP276 T00940044 TSNO

More Conditions Fewer Conditions

10-Day Weather Forecast

Almanac

Astronomy

Apr. 19, 2014 Rise Set
Actual Time 6:42 AM EDT 8:08 PM EDT
Civil Twilight 6:14 AM EDT 8:36 PM EDT
Nautical Twilight 5:40 AM EDT 9:10 PM EDT
Astronomical Twilight 5:04 AM EDT 9:46 PM EDT
Moon No Moon Rise 10:00 AM EDT
Length of Visible Light 14h 22m
Length of Day
13h 25m
Tomorrow will be 2m 26s longer.
Waning Gibbous, 80% of the Moon is Illuminated
Today
Waning Gibbous
Apr 22
Last Quarter
Apr 29
New
May 6
First Quarter
May 14
Full

Today's Extremes

State Highs State Lows

Community

  • Bleeding Hearts
    Bleeding Hearts
  • Sunset Silhouettes
    Sunset Silhouettes
  • FL sunset Perico Isle
    FL sunset Perico Isle
  • Cloudy spring view
    Cloudy spring view
  • Old barn
    Old barn

WunderPhotos

Upload Photos

1,702,716 photos uploaded!

Nearby

Snow Depth

Station Depth Elevation
No new snow has been reported.

Coastal Water Temperatures

Place Temperature
No Stations Reporting

Earthquake Activity

City Distance Mag. Time & Date
No recent earthquake activity has been reported nearby.
Minimum magnitude displayed is 2.5.

Nearby Weather Stations

Station Location Temp. Dew Point Humidity Wind Precip. Elev Updated Type
BEVERLY, OH 54.5 °F 42 °F 63% NNE  at  1.3 mph 0.00 in / hr 702 ft 9:13 AM EDT Rapid Fire
Waterford, Waterford, OH 53.9 °F 45 °F 71% ENE  at  10.0 mph 0.00 in / hr 854 ft 9:11 AM EDT Normal
Waterford, OH 54.7 °F 44 °F 67% South  at  2.0 mph 0.00 in / hr 774 ft 8:09 AM CDT Normal

Show More Stations Show Fewer Stations

What do you think?

We're not finished. Please let us know what you like, what you don't like, and what you are still missing.